Terminal Aerodrome Forecast
Issued by NWS Upton, NY

Home | Current Version | Previous Version | Text Only | Print | Product List | Glossary On
Versions: 1 2 3 4 5 6 7 8 9 10 11 12 13 14 15 16 17 18 19 20 21 22 23 24 25 26 27 28 29 30
021
FTUS41 KOKX 030641 AAA
TAFEWR
TAF AMD
KEWR 030641Z 0307/0412 VRB03KT 4SM -RA BR BKN040 OVC080
      TEMPO 0307/0308 BKN005
     FM030800 VRB05KT 3SM RA BR SCT005 BKN015
      TEMPO 0308/0312 2SM +RA BR BKN005
     FM031200 05008KT 4SM -RA BR OVC008
     FM031600 07006KT 6SM -DZ BR BKN015 OVC040
     FM040000 VRB04KT P6SM BKN025
     FM040600 VRB03KT 2SM BR BKN015 OVC030=

USA.gov is the U.S. government's official web portal to all federal, state and local government web resources and services.